createdAt,value
2023-03-21T00:01:52.087Z,7.00
2023-03-21T00:04:19.660Z,5.90
2023-03-21T00:06:46.576Z,7.43
2023-03-21T00:09:13.387Z,4.73
2023-03-21T00:11:40.571Z,7.30
2023-03-21T00:14:08.736Z,7.50
2023-03-21T00:16:39.841Z,8.00
2023-03-21T00:19:09.615Z,6.87
2023-03-21T00:21:51.892Z,5.87
2023-03-21T00:24:25.411Z,6.13
2023-03-21T00:26:53.021Z,8.33
2023-03-21T00:29:20.378Z,7.30
2023-03-21T00:31:47.244Z,7.87
2023-03-21T00:34:14.199Z,10.03
2023-03-21T00:36:41.576Z,6.80
2023-03-21T00:39:08.527Z,6.03
2023-03-21T00:41:42.434Z,7.53
2023-03-21T00:44:13.385Z,5.97
2023-03-21T00:46:49.010Z,5.30
2023-03-21T00:49:20.904Z,5.03
2023-03-21T00:51:51.182Z,6.97
2023-03-21T00:54:18.757Z,9.00
2023-03-21T00:56:45.711Z,6.57
2023-03-21T00:59:12.499Z,6.83
2023-03-21T01:01:39.299Z,6.67
2023-03-21T01:04:07.530Z,8.27
2023-03-21T01:06:40.780Z,12.53
2023-03-21T01:09:21.242Z,8.67
2023-03-21T01:11:49.412Z,7.73
2023-03-21T01:14:23.064Z,8.37
2023-03-21T01:16:53.057Z,8.60
2023-03-21T01:19:40.608Z,8.47
2023-03-21T01:22:11.863Z,7.23
2023-03-21T01:24:50.300Z,10.30
2023-03-21T01:27:20.131Z,12.00
2023-03-21T01:29:48.635Z,9.63
2023-03-21T01:32:15.734Z,8.63
2023-03-21T01:34:42.777Z,11.93
2023-03-21T01:37:09.594Z,10.07
2023-03-21T01:39:43.573Z,12.50
2023-03-21T01:42:14.159Z,10.67
2023-03-21T01:45:06.210Z,10.13
2023-03-21T01:47:41.725Z,13.93
2023-03-21T01:50:22.695Z,11.30
2023-03-21T01:53:16.873Z,13.50
2023-03-21T01:55:44.067Z,11.90
2023-03-21T01:58:42.010Z,9.63
2023-03-21T02:01:25.955Z,13.77
2023-03-21T02:03:56.553Z,17.27
2023-03-21T02:06:52.273Z,12.30
2023-03-21T02:09:44.319Z,12.87
2023-03-21T02:12:18.553Z,11.93
2023-03-21T02:14:52.850Z,15.23
2023-03-21T02:17:59.108Z,12.13
2023-03-21T02:21:03.127Z,11.83
2023-03-21T02:24:03.641Z,9.70
2023-03-21T02:27:01.420Z,12.10
2023-03-21T02:30:08.701Z,12.80
2023-03-21T02:33:19.621Z,11.20
2023-03-21T02:36:14.239Z,7.20
2023-03-21T02:38:51.508Z,8.07
2023-03-21T02:41:44.076Z,8.03
2023-03-21T02:44:39.696Z,13.30
2023-03-21T02:47:27.055Z,10.83
2023-03-21T02:50:12.162Z,10.97
2023-03-21T02:52:42.290Z,7.83
2023-03-21T02:55:24.724Z,12.60
2023-03-21T02:58:12.277Z,7.33
2023-03-21T03:00:46.030Z,9.70
2023-03-21T03:03:33.004Z,8.50
2023-03-21T03:06:07.693Z,13.53
2023-03-21T03:09:07.514Z,11.80
2023-03-21T03:11:43.342Z,10.07
2023-03-21T03:14:56.529Z,10.50
2023-03-21T03:17:59.516Z,10.07
2023-03-21T03:20:41.845Z,8.73
2023-03-21T03:24:03.411Z,8.30
2023-03-21T03:26:50.730Z,9.23
2023-03-21T03:29:21.702Z,12.33
2023-03-21T03:32:11.041Z,9.10
2023-03-21T03:34:49.627Z,8.40
2023-03-21T03:37:26.281Z,8.30
2023-03-21T03:40:06.366Z,9.90
2023-03-21T03:42:46.170Z,10.27
2023-03-21T03:45:29.829Z,9.77
2023-03-21T03:48:37.726Z,9.57
2023-03-21T03:51:12.762Z,7.37
2023-03-21T03:54:19.034Z,7.73
2023-03-21T03:56:46.857Z,6.17
2023-03-21T03:59:21.903Z,8.17
2023-03-21T04:01:57.796Z,9.93
2023-03-21T04:04:28.844Z,6.83
2023-03-21T04:06:58.013Z,8.83
2023-03-21T04:09:42.693Z,7.90
2023-03-21T04:12:13.060Z,6.60
2023-03-21T04:14:47.207Z,6.87
2023-03-21T04:17:16.732Z,11.37
2023-03-21T04:19:43.627Z,8.57
2023-03-21T04:22:10.717Z,8.00
2023-03-21T04:24:40.574Z,7.40
2023-03-21T04:27:07.417Z,7.93
2023-03-21T04:29:42.635Z,8.33
2023-03-21T04:32:24.624Z,7.73
2023-03-21T04:35:00.676Z,5.67
2023-03-21T04:37:27.874Z,10.37
2023-03-21T04:39:55.499Z,9.30
2023-03-21T04:42:22.573Z,7.70
2023-03-21T04:44:49.504Z,7.90
2023-03-21T04:47:20.137Z,5.03
2023-03-21T04:49:50.175Z,6.87
2023-03-21T04:52:17.426Z,5.77
2023-03-21T04:54:44.714Z,7.57
2023-03-21T04:57:11.724Z,4.90
2023-03-21T04:59:38.652Z,4.80
2023-03-21T05:02:05.836Z,7.63
2023-03-21T05:04:33.219Z,5.83
2023-03-21T05:07:00.157Z,6.33
2023-03-21T05:09:27.904Z,5.13
2023-03-21T05:11:55.331Z,5.33
2023-03-21T05:14:25.802Z,4.17
2023-03-21T05:16:53.486Z,6.43
2023-03-21T05:19:25.752Z,6.60
2023-03-21T05:21:52.728Z,8.93
2023-03-21T05:24:22.834Z,9.23
2023-03-21T05:26:52.353Z,5.87
2023-03-21T05:29:22.379Z,7.80
2023-03-21T05:32:00.932Z,8.17
2023-03-21T05:34:29.058Z,12.27
2023-03-21T05:36:56.589Z,7.63
2023-03-21T05:39:26.299Z,11.83
2023-03-21T05:42:08.095Z,8.10
2023-03-21T05:44:35.368Z,8.90
2023-03-21T05:47:05.995Z,8.83
2023-03-21T05:49:47.063Z,11.53
2023-03-21T05:52:14.693Z,11.37
2023-03-21T05:54:41.937Z,7.40
2023-03-21T05:57:09.319Z,8.07
2023-03-21T05:59:56.485Z,7.50
2023-03-21T06:02:23.392Z,9.23
2023-03-21T06:04:50.685Z,8.07
2023-03-21T06:07:22.020Z,10.77
2023-03-21T06:09:50.026Z,7.87
2023-03-21T06:12:16.909Z,11.20
2023-03-21T06:15:09.042Z,7.17
2023-03-21T06:17:52.818Z,7.43
2023-03-21T06:20:19.829Z,9.70
2023-03-21T06:22:51.310Z,10.30
2023-03-21T06:25:18.410Z,6.40
2023-03-21T06:27:45.245Z,9.47
2023-03-21T06:30:13.095Z,8.60
2023-03-21T06:32:48.684Z,8.90
2023-03-21T06:35:18.929Z,10.23
2023-03-21T06:37:49.100Z,9.27
2023-03-21T06:40:16.821Z,9.00
2023-03-21T06:42:43.590Z,10.73
2023-03-21T06:45:11.655Z,6.40
2023-03-21T06:47:38.646Z,7.83
2023-03-21T06:50:11.903Z,7.97
2023-03-21T06:52:42.225Z,9.10
2023-03-21T06:55:09.524Z,6.60
2023-03-21T06:57:36.627Z,11.07
2023-03-21T07:00:05.432Z,9.77
2023-03-21T07:02:33.307Z,7.87
2023-03-21T07:05:09.402Z,10.93
2023-03-21T07:07:37.072Z,11.10
2023-03-21T07:10:05.669Z,7.77
2023-03-21T07:12:42.017Z,9.87
2023-03-21T07:15:17.403Z,10.33
2023-03-21T07:17:45.811Z,9.87
2023-03-21T07:20:13.278Z,9.17
2023-03-21T07:22:41.380Z,10.57
2023-03-21T07:25:09.618Z,10.30
2023-03-21T07:27:41.088Z,11.10
2023-03-21T07:30:10.620Z,7.83
2023-03-21T07:32:40.241Z,11.13
2023-03-21T07:35:10.840Z,7.10
2023-03-21T07:37:38.295Z,8.47
2023-03-21T07:40:10.293Z,10.47
2023-03-21T07:42:40.599Z,8.33
2023-03-21T07:45:10.241Z,9.87
2023-03-21T07:47:37.220Z,9.00
2023-03-21T07:50:04.654Z,12.57
2023-03-21T07:52:32.861Z,9.67
2023-03-21T07:54:59.754Z,9.70
2023-03-21T07:57:26.577Z,7.40
2023-03-21T07:59:53.346Z,8.37
2023-03-21T08:02:20.351Z,9.27
2023-03-21T08:04:47.735Z,10.47
2023-03-21T08:07:15.081Z,12.17
2023-03-21T08:09:43.729Z,13.20
2023-03-21T08:12:11.121Z,10.33
2023-03-21T08:14:38.516Z,9.57
2023-03-21T08:17:06.524Z,9.70
2023-03-21T08:19:33.394Z,8.83
2023-03-21T08:22:00.863Z,9.73
2023-03-21T08:24:28.886Z,13.17
2023-03-21T08:26:55.734Z,15.77
2023-03-21T08:29:23.022Z,14.00
2023-03-21T08:31:49.835Z,9.20
2023-03-21T08:34:18.064Z,10.03
2023-03-21T08:36:45.075Z,10.60
2023-03-21T08:39:11.880Z,12.17
2023-03-21T08:41:38.741Z,9.20
2023-03-21T08:44:06.950Z,13.37
2023-03-21T08:46:34.099Z,9.73
2023-03-21T08:49:01.385Z,8.57
2023-03-21T08:51:28.215Z,9.70
2023-03-21T08:53:55.014Z,13.70
2023-03-21T08:56:21.820Z,9.10
2023-03-21T08:58:51.136Z,11.23
2023-03-21T09:01:18.389Z,9.20
2023-03-21T09:03:45.529Z,12.00
2023-03-21T09:06:14.137Z,11.73
2023-03-21T09:08:42.120Z,12.50
2023-03-21T09:11:10.364Z,7.27
2023-03-21T09:13:37.163Z,7.67
2023-03-21T09:16:05.185Z,7.37
2023-03-21T09:18:48.755Z,11.27
2023-03-21T09:21:18.406Z,9.57
2023-03-21T09:23:46.315Z,11.93
2023-03-21T09:26:14.375Z,9.40
2023-03-21T09:28:41.473Z,7.27
2023-03-21T09:31:11.759Z,11.07
2023-03-21T09:33:43.263Z,8.07
2023-03-21T09:36:14.051Z,8.50
2023-03-21T09:38:45.385Z,10.60
2023-03-21T09:41:45.113Z,10.13
2023-03-21T09:44:27.674Z,13.63
2023-03-21T09:47:29.413Z,8.20
2023-03-21T09:50:14.463Z,8.33
2023-03-21T09:53:20.936Z,9.03
2023-03-21T09:55:47.927Z,10.13
2023-03-21T09:58:40.298Z,9.90
2023-03-21T10:01:41.348Z,8.70
2023-03-21T10:04:16.673Z,8.43
2023-03-21T10:06:45.731Z,8.13
2023-03-21T10:09:24.327Z,7.47
2023-03-21T10:11:58.515Z,9.50
2023-03-21T10:14:41.600Z,8.20
2023-03-21T10:17:33.835Z,6.23
2023-03-21T10:20:21.845Z,7.27
2023-03-21T10:22:55.561Z,4.73
2023-03-21T10:25:40.877Z,4.93
2023-03-21T10:28:16.243Z,6.87
2023-03-21T10:31:05.060Z,7.83
2023-03-21T10:33:42.962Z,7.00
2023-03-21T10:36:25.716Z,7.30
2023-03-21T10:39:06.039Z,10.63
2023-03-21T10:41:34.530Z,6.60
2023-03-21T10:44:18.351Z,6.73
2023-03-21T10:47:05.730Z,6.10
2023-03-21T10:49:40.267Z,10.70
2023-03-21T10:52:19.422Z,6.50
2023-03-21T10:54:48.302Z,4.40
2023-03-21T10:57:26.835Z,6.77
2023-03-21T10:59:59.073Z,5.87
2023-03-21T11:02:34.895Z,6.23
2023-03-21T11:05:18.327Z,7.57
2023-03-21T11:07:47.163Z,5.77
2023-03-21T11:10:34.268Z,8.83
2023-03-21T11:13:26.976Z,5.43
2023-03-21T11:16:06.279Z,7.43
2023-03-21T11:18:33.257Z,5.37
2023-03-21T11:21:12.082Z,6.70
2023-03-21T11:23:51.642Z,6.17
2023-03-21T11:26:38.042Z,4.80
2023-03-21T11:29:23.523Z,7.23
2023-03-21T11:31:50.614Z,7.73
2023-03-21T11:34:34.448Z,6.80
2023-03-21T11:37:03.834Z,6.27
2023-03-21T11:39:37.418Z,6.80
2023-03-21T11:42:04.667Z,7.03
2023-03-21T11:44:44.224Z,4.93
2023-03-21T11:47:11.708Z,4.67
2023-03-21T11:49:38.896Z,9.57
2023-03-21T11:52:24.202Z,6.30
2023-03-21T11:55:20.725Z,6.23
2023-03-21T11:58:23.135Z,4.83
2023-03-21T12:01:19.317Z,6.63
2023-03-21T12:04:35.911Z,5.07
2023-03-21T12:07:39.381Z,7.37
2023-03-21T12:10:37.104Z,5.77
2023-03-21T12:13:20.512Z,7.67
2023-03-21T12:16:24.268Z,4.73
2023-03-21T12:19:17.849Z,4.70
2023-03-21T12:22:21.374Z,9.40
2023-03-21T12:24:56.304Z,5.90
2023-03-21T12:27:45.977Z,5.27
2023-03-21T12:30:44.647Z,3.80
2023-03-21T12:33:51.235Z,4.87
2023-03-21T12:36:47.996Z,4.27
2023-03-21T12:39:37.801Z,4.50
2023-03-21T12:42:13.453Z,4.57
2023-03-21T12:44:47.532Z,5.03
2023-03-21T12:47:21.429Z,5.10
2023-03-21T12:50:03.455Z,4.20
2023-03-21T12:52:41.866Z,5.70
2023-03-21T12:55:23.705Z,4.23
2023-03-21T12:58:18.769Z,5.33
2023-03-21T13:00:52.920Z,4.07
2023-03-21T13:03:39.796Z,5.83
2023-03-21T13:06:11.980Z,5.23
2023-03-21T13:09:06.834Z,5.17
2023-03-21T13:11:34.616Z,5.33
2023-03-21T13:14:30.614Z,4.07
2023-03-21T13:17:13.280Z,4.90
2023-03-21T13:20:22.099Z,4.13
2023-03-21T13:22:49.195Z,4.23
2023-03-21T13:25:23.985Z,4.77
2023-03-21T13:27:54.840Z,5.40
2023-03-21T13:30:28.521Z,4.83
2023-03-21T13:33:12.941Z,4.30
2023-03-21T13:35:44.284Z,4.03
2023-03-21T13:38:26.471Z,4.77
2023-03-21T13:41:15.905Z,4.20
2023-03-21T13:43:45.613Z,4.70
2023-03-21T13:46:25.961Z,3.80
2023-03-21T13:48:58.590Z,5.07
2023-03-21T13:51:29.185Z,5.60
2023-03-21T13:54:08.960Z,4.17
2023-03-21T13:56:45.750Z,4.60
2023-03-21T13:59:19.080Z,3.90
2023-03-21T14:02:21.561Z,5.27
2023-03-21T14:05:06.609Z,4.90
2023-03-21T14:07:43.912Z,4.50
2023-03-21T14:10:53.842Z,4.20
2023-03-21T14:13:26.262Z,5.87
2023-03-21T14:16:07.603Z,5.53
2023-03-21T14:18:55.278Z,5.47
2023-03-21T14:21:33.020Z,4.27
2023-03-21T14:24:12.771Z,5.60
2023-03-21T14:26:50.507Z,5.80
2023-03-21T14:29:35.364Z,4.27
2023-03-21T14:32:05.579Z,4.10
2023-03-21T14:34:35.624Z,7.37
2023-03-21T14:37:02.445Z,5.90
2023-03-21T14:39:33.492Z,5.10
2023-03-21T14:42:15.515Z,5.87
2023-03-21T14:44:56.778Z,5.13
2023-03-21T14:47:27.897Z,5.63
2023-03-21T14:49:57.132Z,5.27
2023-03-21T14:52:33.873Z,4.60
2023-03-21T14:55:05.191Z,4.10
2023-03-21T14:57:33.493Z,5.47
2023-03-21T15:00:12.552Z,6.43
2023-03-21T15:02:42.840Z,5.23
2023-03-21T15:05:17.415Z,5.43
2023-03-21T15:08:18.006Z,6.23
2023-03-21T15:11:12.346Z,7.17
2023-03-21T15:13:52.153Z,4.93
2023-03-21T15:16:20.243Z,4.30
2023-03-21T15:18:48.125Z,4.13
2023-03-21T15:21:22.117Z,6.60
2023-03-21T15:23:55.758Z,3.93
2023-03-21T15:26:25.717Z,4.27
2023-03-21T15:28:58.841Z,4.63
2023-03-21T15:31:34.722Z,5.77
2023-03-21T15:34:03.827Z,9.43
2023-03-21T15:36:43.049Z,5.63
2023-03-21T15:39:16.655Z,4.40
2023-03-21T15:42:23.275Z,6.83
2023-03-21T15:44:56.296Z,7.10
2023-03-21T15:47:53.789Z,5.27
2023-03-21T15:50:41.446Z,4.30
2023-03-21T15:53:17.443Z,6.70
2023-03-21T15:55:50.090Z,7.80
2023-03-21T15:58:27.929Z,4.90
2023-03-21T16:01:00.708Z,5.03
2023-03-21T16:03:32.298Z,5.67
2023-03-21T16:06:05.520Z,6.00
2023-03-21T16:08:38.440Z,4.00
2023-03-21T16:11:22.835Z,4.80
2023-03-21T16:13:50.370Z,6.37
2023-03-21T16:16:21.282Z,7.87
2023-03-21T16:18:48.586Z,6.30
2023-03-21T16:21:19.261Z,5.17
2023-03-21T16:23:48.183Z,5.80
2023-03-21T16:26:20.848Z,6.20
2023-03-21T16:28:49.118Z,6.43
2023-03-21T16:31:23.261Z,4.83
2023-03-21T16:33:51.226Z,7.43
2023-03-21T16:36:22.968Z,5.53
2023-03-21T16:38:54.965Z,5.70
2023-03-21T16:41:24.410Z,6.07
2023-03-21T16:43:53.227Z,7.87
2023-03-21T16:46:24.133Z,5.17
2023-03-21T16:48:57.673Z,5.53
2023-03-21T16:51:33.009Z,5.83
2023-03-21T16:54:00.856Z,7.27
2023-03-21T16:56:36.828Z,5.27
2023-03-21T16:59:05.879Z,5.43
2023-03-21T17:01:32.829Z,5.70
2023-03-21T17:04:00.145Z,6.43
2023-03-21T17:06:30.160Z,6.63
2023-03-21T17:08:58.986Z,5.77
2023-03-21T17:11:31.289Z,7.23
2023-03-21T17:13:58.111Z,5.53
2023-03-21T17:16:27.328Z,5.80
2023-03-21T17:18:55.087Z,7.03
2023-03-21T17:21:28.414Z,6.13
2023-03-21T17:23:56.544Z,6.10
2023-03-21T17:26:28.054Z,5.57
2023-03-21T17:29:00.104Z,7.00
2023-03-21T17:31:33.544Z,6.83
2023-03-21T17:34:00.538Z,7.53
2023-03-21T17:36:40.363Z,6.90
2023-03-21T17:39:14.710Z,7.30
2023-03-21T17:41:41.551Z,8.07
2023-03-21T17:44:08.386Z,6.50
2023-03-21T17:46:37.432Z,6.53
2023-03-21T17:49:06.065Z,6.43
2023-03-21T17:51:33.460Z,7.60
2023-03-21T17:54:00.746Z,6.47
2023-03-21T17:56:31.891Z,7.67
2023-03-21T17:59:03.168Z,5.37
2023-03-21T18:01:30.789Z,5.30
2023-03-21T18:03:59.512Z,5.17
2023-03-21T18:06:26.826Z,5.17
2023-03-21T18:08:55.016Z,7.40
2023-03-21T18:11:24.218Z,7.57
2023-03-21T18:13:59.428Z,6.73
2023-03-21T18:16:30.838Z,6.93
2023-03-21T18:18:57.808Z,14.10
2023-03-21T18:21:26.247Z,10.53
2023-03-21T18:23:55.679Z,13.00
2023-03-21T18:26:23.967Z,9.23
2023-03-21T18:29:36.789Z,7.73
2023-03-21T18:31:38.138Z,7.87
2023-03-21T18:34:05.226Z,8.70
2023-03-21T18:36:32.118Z,7.53
2023-03-21T18:38:58.959Z,9.60
2023-03-21T18:41:25.970Z,9.90
2023-03-21T18:44:05.569Z,7.20
2023-03-21T18:46:47.344Z,7.43
2023-03-21T18:49:58.853Z,7.07
2023-03-21T18:52:02.854Z,6.90
2023-03-21T18:54:30.137Z,9.40
2023-03-21T18:57:33.760Z,8.17
2023-03-21T18:59:44.497Z,7.40
2023-03-21T19:02:14.424Z,9.40
2023-03-21T19:04:42.405Z,8.10
2023-03-21T19:07:09.615Z,10.43
2023-03-21T19:12:27.268Z,8.63
2023-03-21T19:14:54.948Z,9.03
2023-03-21T19:18:24.989Z,8.00
2023-03-21T19:20:12.040Z,7.97
2023-03-21T19:22:38.873Z,11.13
2023-03-21T19:25:07.810Z,8.13
2023-03-21T19:27:35.728Z,9.27
2023-03-21T19:30:14.299Z,7.90
2023-03-21T19:32:43.209Z,8.77
2023-03-21T19:35:10.733Z,10.07
2023-03-21T19:37:37.595Z,10.03
2023-03-21T19:40:06.788Z,14.83
2023-03-21T19:42:36.114Z,8.67
2023-03-21T19:45:05.258Z,8.50
2023-03-21T19:47:32.700Z,8.57
2023-03-21T19:50:45.571Z,8.83
2023-03-21T19:52:46.923Z,8.83
2023-03-21T19:55:14.813Z,8.10
2023-03-21T19:57:41.762Z,8.63
2023-03-21T20:00:11.252Z,8.83
2023-03-21T20:02:38.718Z,8.37
2023-03-21T20:05:08.292Z,8.07
2023-03-21T20:07:35.444Z,8.67
2023-03-21T20:10:02.441Z,10.50
2023-03-21T20:12:29.327Z,8.50
2023-03-21T20:15:12.052Z,9.20
2023-03-21T20:17:43.461Z,8.77
2023-03-21T20:20:14.409Z,7.87
2023-03-21T20:23:05.558Z,8.37
2023-03-21T20:25:30.085Z,9.03
2023-03-21T20:28:14.754Z,8.33
2023-03-21T20:30:53.257Z,8.50
2023-03-21T20:33:20.781Z,10.83
2023-03-21T20:38:36.791Z,8.13
2023-03-21T20:41:06.456Z,7.70
2023-03-21T20:46:20.653Z,8.20
2023-03-21T20:48:49.545Z,8.63
2023-03-21T20:52:12.356Z,7.53
2023-03-21T20:54:04.244Z,10.23
2023-03-21T20:56:31.146Z,7.50
2023-03-21T20:59:12.208Z,8.53
2023-03-21T21:01:43.075Z,9.30
2023-03-21T21:04:10.321Z,8.50
2023-03-21T21:06:38.599Z,8.40
2023-03-21T21:09:05.407Z,7.67
2023-03-21T21:12:05.779Z,8.27
2023-03-21T21:14:20.022Z,9.23
2023-03-21T21:16:48.077Z,10.77
2023-03-21T21:19:18.657Z,9.40
2023-03-21T21:21:46.365Z,11.93
2023-03-21T21:24:14.583Z,8.70
2023-03-21T21:26:45.934Z,8.13
2023-03-21T21:29:17.010Z,8.90
2023-03-21T21:31:50.060Z,9.27
2023-03-21T21:34:18.729Z,10.33
2023-03-21T21:36:46.800Z,8.23
2023-03-21T21:39:15.559Z,9.83
2023-03-21T21:41:43.066Z,10.50
2023-03-21T21:44:10.868Z,8.63
2023-03-21T21:46:37.886Z,8.17
2023-03-21T21:49:04.815Z,9.60
2023-03-21T21:51:34.169Z,10.20
2023-03-21T21:54:03.628Z,8.27
2023-03-21T21:56:32.063Z,8.93
2023-03-21T21:59:03.106Z,8.57
2023-03-21T22:01:34.447Z,8.90
2023-03-21T22:04:08.118Z,7.83
2023-03-21T22:06:35.436Z,9.47
2023-03-21T22:09:04.593Z,8.80
2023-03-21T22:11:31.519Z,7.27
2023-03-21T22:13:58.465Z,8.50
2023-03-21T22:16:25.407Z,8.10
2023-03-21T22:18:52.231Z,9.10
2023-03-21T22:21:19.075Z,7.90
2023-03-21T22:23:45.855Z,7.30
2023-03-21T22:26:13.914Z,7.43
2023-03-21T22:28:42.287Z,9.43
2023-03-21T22:31:13.443Z,8.47
2023-03-21T22:33:40.302Z,8.63
2023-03-21T22:36:08.062Z,9.97
2023-03-21T22:38:37.812Z,6.97
2023-03-21T22:41:06.342Z,8.07
2023-03-21T22:43:34.248Z,7.17
2023-03-21T22:46:03.339Z,8.93
2023-03-21T22:48:30.820Z,7.40
2023-03-21T22:50:59.865Z,9.53
2023-03-21T22:53:27.089Z,7.37
2023-03-21T22:55:54.260Z,7.77
2023-03-21T22:58:21.424Z,7.30
2023-03-21T23:00:48.824Z,7.60
2023-03-21T23:03:16.935Z,8.60
2023-03-21T23:05:45.096Z,9.30
2023-03-21T23:08:12.596Z,7.10
2023-03-21T23:10:43.290Z,7.27
2023-03-21T23:13:10.337Z,7.60
2023-03-21T23:15:38.504Z,6.87
2023-03-21T23:18:05.992Z,6.80
2023-03-21T23:20:33.034Z,6.90
2023-03-21T23:22:59.889Z,6.37
2023-03-21T23:25:28.833Z,6.87
2023-03-21T23:27:55.840Z,6.70
2023-03-21T23:30:22.682Z,7.03
2023-03-21T23:32:49.538Z,7.33
2023-03-21T23:35:19.688Z,7.20
2023-03-21T23:37:51.869Z,8.17
2023-03-21T23:40:20.955Z,7.57
2023-03-21T23:42:48.009Z,5.80
2023-03-21T23:45:15.472Z,6.03
2023-03-21T23:47:42.354Z,6.77
2023-03-21T23:50:10.747Z,7.90
2023-03-21T23:52:41.230Z,7.33
2023-03-21T23:55:09.151Z,8.47
2023-03-21T23:57:38.106Z,7.87
